Time;durP1;ratioP1;P1;durP2;ratioP2;P2;SDS_P1;SDS_P2;PMS_P1;PMS_P2;Temp;Humidity;BMP_temperature;BMP_pressure;BME280_temperature;BME280_humidity;BME280_pressure;Samples;Min_cycle;Max_cycle;Signal;HPM_P1;HPM_P2
2023/08/15 00:00:17;;;;;;;7.88;4.68;;;;;;;;;;5035764;28;20044;-96
2023/08/15 00:02:43;;;;;;;11.80;4.32;;;;;;;;;;5035066;28;20021;-96
2023/08/15 00:05:09;;;;;;;6.72;4.20;;;;;;;;;;5058593;28;20078;-96
2023/08/15 00:07:44;;;;;;;6.85;3.67;;;;;;;;;;5057047;28;20060;-96
2023/08/15 00:10:10;;;;;;;7.97;4.00;;;;;;;;;;5059276;28;20032;-96
2023/08/15 00:12:36;;;;;;;10.30;4.50;;;;;;;;;;5060627;28;20081;-96
2023/08/15 00:15:03;;;;;;;9.25;4.22;;;;;;;;;;5061138;28;20021;-96
2023/08/15 00:17:29;;;;;;;5.55;4.32;;;;;;;;;;5054081;28;20089;-96
2023/08/15 00:19:55;;;;;;;6.03;4.25;;;;;;;;;;5034089;28;20068;-95
2023/08/15 00:22:21;;;;;;;12.00;4.28;;;;;;;;;;5053951;28;20032;-96
2023/08/15 00:24:47;;;;;;;6.68;3.97;;;;;;;;;;5034249;28;20418;-95
2023/08/15 00:27:13;;;;;;;6.85;4.57;;;;;;;;;;5052159;28;20032;-96
2023/08/15 00:29:39;;;;;;;7.75;4.22;;;;;;;;;;5051384;28;20487;-94
2023/08/15 00:32:05;;;;;;;5.20;4.10;;;;;;;;;;5052068;28;20112;-96
2023/08/15 00:37:35;;;;;;;8.45;4.68;;;;;;;;;;5045148;28;20382;-96
2023/08/15 00:40:01;;;;;;;7.45;4.38;;;;;;;;;;5054390;28;20033;-96
2023/08/15 00:42:27;;;;;;;8.70;4.03;;;;;;;;;;5055037;28;20040;-96
2023/08/15 00:44:53;;;;;;;5.53;4.00;;;;;;;;;;5055092;28;20021;-96
2023/08/15 00:47:19;;;;;;;4.57;3.97;;;;;;;;;;5054494;28;20029;-96
2023/08/15 00:49:46;;;;;;;6.10;3.95;;;;;;;;;;5055397;28;20013;-96
2023/08/15 00:52:13;;;;;;;9.73;3.97;;;;;;;;;;5053356;28;20028;-95
2023/08/15 00:54:40;;;;;;;7.00;4.13;;;;;;;;;;5053372;28;20017;-95
2023/08/15 00:57:07;;;;;;;9.40;4.70;;;;;;;;;;5054520;28;20025;-94
2023/08/15 00:59:33;;;;;;;7.18;4.10;;;;;;;;;;5056447;28;20043;-96
2023/08/15 01:02:00;;;;;;;13.13;4.75;;;;;;;;;;5052210;28;20021;-95
2023/08/15 01:04:26;;;;;;;6.35;4.45;;;;;;;;;;5051914;28;20021;-96
2023/08/15 01:06:52;;;;;;;8.00;3.95;;;;;;;;;;5055334;28;20029;-94
2023/08/15 01:09:18;;;;;;;7.72;4.57;;;;;;;;;;5056744;28;20049;-91
2023/08/15 01:11:52;;;;;;;9.65;4.53;;;;;;;;;;5054148;28;20024;-96
2023/08/15 01:14:20;;;;;;;5.50;4.20;;;;;;;;;;5053680;28;20040;-89
2023/08/15 01:16:48;;;;;;;14.23;5.03;;;;;;;;;;5037295;28;20029;-95
2023/08/15 01:19:29;;;;;;;7.78;4.15;;;;;;;;;;5054854;28;20056;-94
2023/08/15 01:21:55;;;;;;;9.15;4.40;;;;;;;;;;5054451;28;20048;-95
2023/08/15 01:24:22;;;;;;;7.25;4.45;;;;;;;;;;5053883;28;20021;-95
2023/08/15 01:26:48;;;;;;;8.63;4.20;;;;;;;;;;5033945;28;20466;-95
2023/08/15 01:29:14;;;;;;;5.90;4.22;;;;;;;;;;5054183;28;20044;-95
2023/08/15 01:31:43;;;;;;;9.02;4.72;;;;;;;;;;5049130;28;20034;-95
2023/08/15 01:34:24;;;;;;;5.68;4.13;;;;;;;;;;5049632;28;20079;-96
2023/08/15 01:36:54;;;;;;;8.52;4.22;;;;;;;;;;5052637;28;20032;-95
2023/08/15 01:39:20;;;;;;;;;;;;;;;;;;5055130;28;20060;-94
2023/08/15 01:41:46;;;;;;;8.02;4.43;;;;;;;;;;5055953;28;19905;-95
2023/08/15 01:44:14;;;;;;;6.65;4.28;;;;;;;;;;5056428;28;20051;-96
2023/08/15 01:46:40;;;;;;;7.05;4.07;;;;;;;;;;5055429;28;20070;-95
2023/08/15 01:49:06;;;;;;;10.50;5.53;;;;;;;;;;5056345;28;20021;-96
2023/08/15 01:51:32;;;;;;;6.78;5.00;;;;;;;;;;5058127;28;20084;-95
2023/08/15 01:53:58;;;;;;;6.65;3.95;;;;;;;;;;5060545;28;20047;-96
2023/08/15 01:56:24;;;;;;;15.75;4.65;;;;;;;;;;5059340;28;20561;-95
2023/08/15 01:58:50;;;;;;;9.82;4.22;;;;;;;;;;5055955;28;20093;-95
2023/08/15 02:01:16;;;;;;;8.05;4.28;;;;;;;;;;5057790;28;20083;-96
2023/08/15 02:03:42;;;;;;;10.35;4.50;;;;;;;;;;5057976;28;20025;-95
2023/08/15 02:06:08;;;;;;;12.15;4.55;;;;;;;;;;5067736;28;20065;-93
2023/08/15 02:08:34;;;;;;;10.88;4.70;;;;;;;;;;5045518;28;20660;-95
2023/08/15 02:11:00;;;;;;;9.60;4.45;;;;;;;;;;5056022;28;20021;-96
2023/08/15 02:13:32;;;;;;;6.40;4.50;;;;;;;;;;5056879;28;20097;-95
2023/08/15 02:15:58;;;;;;;8.70;4.55;;;;;;;;;;5039718;28;20025;-96
2023/08/15 02:18:27;;;;;;;8.02;4.55;;;;;;;;;;5056156;28;20055;-95
2023/08/15 02:20:53;;;;;;;6.43;4.63;;;;;;;;;;5051791;28;20024;-95
2023/08/15 02:23:19;;;;;;;11.35;4.68;;;;;;;;;;5054200;28;20021;-96
2023/08/15 02:25:45;;;;;;;11.32;4.57;;;;;;;;;;5037533;28;20234;-96
2023/08/15 02:28:11;;;;;;;11.07;4.53;;;;;;;;;;5057034;28;20025;-96
2023/08/15 02:30:37;;;;;;;9.98;4.68;;;;;;;;;;5046524;28;20025;-95
2023/08/15 02:33:07;;;;;;;8.90;3.90;;;;;;;;;;5039011;28;20021;-96
2023/08/15 02:35:33;;;;;;;9.52;4.43;;;;;;;;;;5054988;28;20032;-96
2023/08/15 02:37:59;;;;;;;6.47;4.05;;;;;;;;;;5039805;28;20091;-96
2023/08/15 02:40:26;;;;;;;12.98;4.03;;;;;;;;;;5055805;28;20390;-94
2023/08/15 02:42:52;;;;;;;8.98;4.03;;;;;;;;;;5038203;28;20025;-96
2023/08/15 02:45:18;;;;;;;8.05;4.03;;;;;;;;;;5055116;28;20078;-94
2023/08/15 02:47:47;;;;;;;6.88;4.25;;;;;;;;;;5053337;28;20095;-96
2023/08/15 02:50:14;;;;;;;7.00;4.47;;;;;;;;;;5054319;28;20053;-96
2023/08/15 02:52:40;;;;;;;6.97;4.20;;;;;;;;;;5054296;28;20024;-96
2023/08/15 02:55:06;;;;;;;9.15;4.20;;;;;;;;;;5037294;28;20041;-96
2023/08/15 02:57:33;;;;;;;6.28;4.30;;;;;;;;;;5053653;28;20035;-96
2023/08/15 02:59:59;;;;;;;9.05;4.38;;;;;;;;;;5053917;28;20025;-96
2023/08/15 03:02:25;;;;;;;8.25;4.50;;;;;;;;;;5054693;28;20105;-96
2023/08/15 03:04:51;;;;;;;7.80;4.50;;;;;;;;;;5033217;28;20112;-96
2023/08/15 03:07:17;;;;;;;6.75;4.15;;;;;;;;;;5036628;28;20316;-94
2023/08/15 03:09:43;;;;;;;11.70;4.50;;;;;;;;;;5031852;28;20059;-95
2023/08/15 03:12:09;;;;;;;9.30;4.40;;;;;;;;;;5051522;28;20032;-96
2023/08/15 03:14:35;;;;;;;6.75;3.97;;;;;;;;;;5051226;28;20028;-96
2023/08/15 03:17:02;;;;;;;7.28;4.07;;;;;;;;;;5052270;28;20162;-96
2023/08/15 03:19:28;;;;;;;6.75;4.75;;;;;;;;;;5054718;28;20033;-96
2023/08/15 03:21:54;;;;;;;11.68;4.55;;;;;;;;;;5050986;28;20025;-95
2023/08/15 03:24:20;;;;;;;10.73;4.78;;;;;;;;;;5050854;28;20033;-95
2023/08/15 03:26:46;;;;;;;10.38;4.57;;;;;;;;;;5055298;28;20022;-95
2023/08/15 03:29:13;;;;;;;9.00;4.45;;;;;;;;;;5055359;28;20078;-95
2023/08/15 03:31:39;;;;;;;8.43;4.47;;;;;;;;;;5053113;28;20423;-96
2023/08/15 03:34:05;;;;;;;10.18;4.35;;;;;;;;;;5052188;28;20029;-95
2023/08/15 03:36:31;;;;;;;5.70;4.32;;;;;;;;;;5052395;28;20033;-96
2023/08/15 03:38:57;;;;;;;5.90;4.18;;;;;;;;;;5053989;28;20025;-95
2023/08/15 03:41:23;;;;;;;13.35;4.40;;;;;;;;;;5052624;28;20128;-94
2023/08/15 03:43:49;;;;;;;9.40;4.18;;;;;;;;;;5035584;28;20647;-96
2023/08/15 03:46:15;;;;;;;6.40;4.20;;;;;;;;;;5051991;28;20029;-95
2023/08/15 03:48:41;;;;;;;10.27;4.47;;;;;;;;;;5052102;28;20029;-96
2023/08/15 03:51:07;;;;;;;7.63;4.68;;;;;;;;;;5052321;28;20047;-96
2023/08/15 03:53:33;;;;;;;9.80;4.38;;;;;;;;;;5049992;28;20048;-96
2023/08/15 03:55:59;;;;;;;8.00;5.03;;;;;;;;;;5050478;28;20165;-96
2023/08/15 03:58:25;;;;;;;8.10;4.18;;;;;;;;;;5056691;28;20025;-96
2023/08/15 04:00:51;;;;;;;6.88;4.85;;;;;;;;;;5052746;28;20061;-94
2023/08/15 04:03:17;;;;;;;12.85;4.38;;;;;;;;;;5054060;28;20055;-96
2023/08/15 04:05:44;;;;;;;6.68;3.92;;;;;;;;;;5053262;28;20116;-95
2023/08/15 04:08:10;;;;;;;8.35;4.22;;;;;;;;;;5053131;28;20025;-96
2023/08/15 04:10:39;;;;;;;6.25;4.10;;;;;;;;;;5056564;28;20013;-96
2023/08/15 04:13:09;;;;;;;5.05;3.90;;;;;;;;;;5039682;28;20017;-96
2023/08/15 04:15:35;;;;;;;6.63;3.95;;;;;;;;;;5059925;28;20025;-96
2023/08/15 04:18:02;;;;;;;8.40;4.35;;;;;;;;;;5043177;28;20058;-96
2023/08/15 04:20:28;;;;;;;7.55;4.80;;;;;;;;;;5060729;28;20017;-95
2023/08/15 04:22:54;;;;;;;17.30;5.45;;;;;;;;;;5042700;28;20021;-96
2023/08/15 04:25:20;;;;;;;8.75;4.10;;;;;;;;;;5056062;28;20036;-96
2023/08/15 04:27:47;;;;;;;8.88;4.50;;;;;;;;;;5063533;28;20072;-96
2023/08/15 04:30:13;;;;;;;8.00;4.80;;;;;;;;;;5042114;28;20025;-96
2023/08/15 04:32:39;;;;;;;9.02;5.05;;;;;;;;;;5058932;28;20052;-95
2023/08/15 04:35:06;;;;;;;12.45;5.32;;;;;;;;;;5043303;28;20025;-96
2023/08/15 04:37:32;;;;;;;8.50;4.18;;;;;;;;;;5063161;28;20028;-96
2023/08/15 04:39:58;;;;;;;8.48;4.75;;;;;;;;;;5044245;28;20466;-96
2023/08/15 04:42:24;;;;;;;6.18;3.75;;;;;;;;;;5065782;28;20036;-96
2023/08/15 04:44:50;;;;;;;8.35;4.47;;;;;;;;;;5062980;28;20029;-96
2023/08/15 04:47:17;;;;;;;9.48;4.38;;;;;;;;;;5018321;28;20025;-94
2023/08/15 04:49:43;;;;;;;6.75;4.13;;;;;;;;;;5060418;28;20039;-96
2023/08/15 04:52:09;;;;;;;6.05;4.03;;;;;;;;;;5045710;28;20089;-95
2023/08/15 04:54:35;;;;;;;8.93;3.95;;;;;;;;;;5063784;28;20137;-96
2023/08/15 04:57:01;;;;;;;6.97;4.20;;;;;;;;;;5044485;28;20036;-96
2023/08/15 04:59:27;;;;;;;9.35;4.15;;;;;;;;;;5063356;28;20025;-96
2023/08/15 05:01:53;;;;;;;7.63;4.30;;;;;;;;;;5039400;28;20107;-96
2023/08/15 05:04:19;;;;;;;7.32;4.18;;;;;;;;;;5044293;28;20028;-96
2023/08/15 05:06:45;;;;;;;6.57;3.97;;;;;;;;;;5060283;28;20021;-96
2023/08/15 05:09:11;;;;;;;6.43;3.60;;;;;;;;;;5041372;28;20033;-96
2023/08/15 05:11:37;;;;;;;11.10;4.05;;;;;;;;;;5061032;28;20025;-96
2023/08/15 05:14:06;;;;;;;7.32;4.13;;;;;;;;;;5045645;28;20070;-95
2023/08/15 05:16:32;;;;;;;8.80;4.57;;;;;;;;;;5064618;28;20035;-96
2023/08/15 05:18:58;;;;;;;5.53;4.07;;;;;;;;;;5063774;28;20036;-95
2023/08/15 05:21:24;;;;;;;5.97;3.90;;;;;;;;;;5064425;28;20029;-94
2023/08/15 05:23:50;;;;;;;6.82;4.03;;;;;;;;;;5062660;28;20021;-95
2023/08/15 05:26:16;;;;;;;13.00;4.93;;;;;;;;;;5041394;28;20546;-96
2023/08/15 05:28:42;;;;;;;11.38;4.93;;;;;;;;;;5061836;28;20070;-96
2023/08/15 05:31:08;;;;;;;6.30;4.28;;;;;;;;;;5060715;28;20028;-96
2023/08/15 05:33:34;;;;;;;9.73;4.78;;;;;;;;;;5054469;28;20009;-96
2023/08/15 05:36:00;;;;;;;9.15;4.00;;;;;;;;;;5058648;28;20039;-96
2023/08/15 05:38:26;;;;;;;7.32;3.85;;;;;;;;;;5043688;28;20017;-93
2023/08/15 05:40:52;;;;;;;13.00;5.00;;;;;;;;;;5060119;28;20032;-95
2023/08/15 05:43:17;;;;;;;9.27;4.18;;;;;;;;;;5038054;28;20025;-96
2023/08/15 05:45:46;;;;;;;12.43;4.55;;;;;;;;;;5038954;28;20025;-96
2023/08/15 05:48:12;;;;;;;7.93;4.80;;;;;;;;;;5048951;28;20131;-96
2023/08/15 05:50:38;;;;;;;6.45;4.22;;;;;;;;;;5060226;28;20048;-92
2023/08/15 05:53:04;;;;;;;18.98;4.20;;;;;;;;;;5055501;28;20025;-95
2023/08/15 05:55:30;;;;;;;9.90;4.15;;;;;;;;;;5060028;28;20075;-96
2023/08/15 05:57:56;;;;;;;12.88;3.80;;;;;;;;;;5061909;28;20029;-91
2023/08/15 06:00:22;;;;;;;11.52;4.38;;;;;;;;;;5075745;28;20033;-94
2023/08/15 06:02:48;;;;;;;7.65;4.20;;;;;;;;;;5057645;28;20025;-94
2023/08/15 06:05:14;;;;;;;6.60;4.50;;;;;;;;;;5056858;28;20032;-93
2023/08/15 06:07:41;;;;;;;8.48;3.72;;;;;;;;;;5057520;28;20029;-95
2023/08/15 06:10:07;;;;;;;6.15;3.63;;;;;;;;;;5059633;28;20024;-96
2023/08/15 06:12:33;;;;;;;9.35;4.82;;;;;;;;;;5053460;28;20025;-94
2023/08/15 06:14:59;;;;;;;16.63;4.50;;;;;;;;;;5052670;28;20268;-96
2023/08/15 06:17:25;;;;;;;13.35;4.70;;;;;;;;;;5055351;28;20033;-95
2023/08/15 06:19:53;;;;;;;11.95;4.30;;;;;;;;;;5035454;28;20029;-96
2023/08/15 06:22:22;;;;;;;7.85;4.65;;;;;;;;;;5053135;28;20021;-96
2023/08/15 06:24:48;;;;;;;9.63;4.43;;;;;;;;;;5052400;28;20489;-96
2023/08/15 06:27:14;;;;;;;8.05;5.18;;;;;;;;;;5049602;28;20031;-96
2023/08/15 06:29:40;;;;;;;7.05;4.72;;;;;;;;;;5048827;28;20025;-95
2023/08/15 06:32:06;;;;;;;7.47;4.95;;;;;;;;;;5051026;28;20729;-96
2023/08/15 06:34:32;;;;;;;8.50;4.45;;;;;;;;;;5052519;28;20024;-95
2023/08/15 06:36:58;;;;;;;5.88;4.30;;;;;;;;;;5057075;28;20037;-95
2023/08/15 06:39:24;;;;;;;11.32;5.55;;;;;;;;;;5041529;28;20231;-95
2023/08/15 06:41:50;;;;;;;12.50;6.43;;;;;;;;;;5024834;28;20033;-96
2023/08/15 06:44:16;;;;;;;10.32;5.88;;;;;;;;;;5063173;28;20032;-96
2023/08/15 06:46:42;;;;;;;10.98;5.55;;;;;;;;;;5064396;28;20028;-95
2023/08/15 06:49:08;;;;;;;7.93;4.63;;;;;;;;;;5060828;28;20112;-94
2023/08/15 06:51:34;;;;;;;8.45;4.28;;;;;;;;;;5061907;28;20047;-96
2023/08/15 06:54:00;;;;;;;7.38;4.63;;;;;;;;;;5060892;28;20083;-95
2023/08/15 06:56:26;;;;;;;17.45;4.78;;;;;;;;;;5055840;28;20017;-96
2023/08/15 06:58:52;;;;;;;13.50;5.75;;;;;;;;;;5037122;28;20028;-89
2023/08/15 07:01:19;;;;;;;8.82;3.90;;;;;;;;;;5042661;28;20056;-95
2023/08/15 07:03:45;;;;;;;7.05;3.85;;;;;;;;;;5061623;28;20108;-96
2023/08/15 07:06:12;;;;;;;12.65;4.88;;;;;;;;;;5059050;28;20061;-95
2023/08/15 07:08:38;;;;;;;9.00;4.45;;;;;;;;;;5055738;28;20703;-96
2023/08/15 07:11:04;;;;;;;16.17;5.40;;;;;;;;;;5054834;28;20032;-96
2023/08/15 07:13:30;;;;;;;14.23;4.90;;;;;;;;;;5056599;28;20445;-95
2023/08/15 07:15:56;;;;;;;9.32;5.15;;;;;;;;;;5036071;28;20120;-95
2023/08/15 07:18:25;;;;;;;11.27;5.35;;;;;;;;;;5036946;28;20116;-96
2023/08/15 07:20:52;;;;;;;12.30;5.55;;;;;;;;;;5057821;28;20029;-96
2023/08/15 07:23:20;;;;;;;14.05;5.82;;;;;;;;;;5059338;28;20033;-96
2023/08/15 07:25:46;;;;;;;22.23;6.95;;;;;;;;;;5061168;28;20023;-95
2023/08/15 07:28:13;;;;;;;8.18;5.47;;;;;;;;;;5055950;28;20040;-95
2023/08/15 07:30:39;;;;;;;9.90;4.38;;;;;;;;;;5045953;28;20025;-94
2023/08/15 07:33:06;;;;;;;10.40;5.28;;;;;;;;;;5061945;28;20029;-96
2023/08/15 07:35:32;;;;;;;16.52;5.60;;;;;;;;;;5052862;28;20033;-89
2023/08/15 07:37:58;;;;;;;8.13;4.85;;;;;;;;;;5048436;28;20021;-88
2023/08/15 07:40:24;;;;;;;11.63;4.88;;;;;;;;;;5031677;28;20021;-87
2023/08/15 07:42:52;;;;;;;10.18;6.18;;;;;;;;;;5048038;28;20025;-88
2023/08/15 07:45:19;;;;;;;11.52;5.38;;;;;;;;;;5051856;28;20061;-81
2023/08/15 07:47:48;;;;;;;25.70;6.45;;;;;;;;;;5051556;28;20017;-84
2023/08/15 07:50:27;;;;;;;12.20;5.70;;;;;;;;;;5046257;28;20477;-84
2023/08/15 07:52:53;;;;;;;14.18;5.53;;;;;;;;;;5047780;28;20462;-83
2023/08/15 07:55:33;;;;;;;13.20;5.68;;;;;;;;;;5050702;28;20036;-84
2023/08/15 07:58:00;;;;;;;17.63;6.47;;;;;;;;;;5049901;28;20124;-84
2023/08/15 08:00:26;;;;;;;24.67;6.32;;;;;;;;;;5033636;28;20076;-84
2023/08/15 08:02:52;;;;;;;13.60;6.20;;;;;;;;;;5047555;28;20027;-84
2023/08/15 08:05:18;;;;;;;11.50;5.35;;;;;;;;;;5051737;28;20108;-82
2023/08/15 08:07:44;;;;;;;12.98;5.97;;;;;;;;;;5049793;28;20031;-84
2023/08/15 08:10:11;;;;;;;12.98;7.07;;;;;;;;;;5049600;28;20055;-83
2023/08/15 08:12:37;;;;;;;16.35;7.55;;;;;;;;;;5050275;28;20029;-84
2023/08/15 08:15:03;;;;;;;14.63;8.23;;;;;;;;;;5051577;28;20148;-84
2023/08/15 08:17:30;;;;;;;12.85;7.78;;;;;;;;;;5052082;28;20469;-84
2023/08/15 08:19:56;;;;;;;40.70;13.15;;;;;;;;;;5053173;28;20066;-83
2023/08/15 08:22:22;;;;;;;42.15;11.95;;;;;;;;;;5047294;28;20124;-84
2023/08/15 08:24:53;;;;;;;24.58;10.15;;;;;;;;;;5048157;28;20029;-82
2023/08/15 08:27:19;;;;;;;18.77;10.30;;;;;;;;;;5051831;28;20473;-83
2023/08/15 08:29:45;;;;;;;17.55;9.45;;;;;;;;;;5052406;28;20084;-82
2023/08/15 08:32:11;;;;;;;15.18;10.10;;;;;;;;;;5051287;28;20075;-81
2023/08/15 08:34:36;;;;;;;15.38;9.88;;;;;;;;;;5049922;28;20488;-80
2023/08/15 08:37:03;;;;;;;18.13;11.10;;;;;;;;;;5050351;28;20028;-83
2023/08/15 08:39:29;;;;;;;16.13;9.23;;;;;;;;;;5033156;28;20472;-81
2023/08/15 08:41:55;;;;;;;16.98;9.25;;;;;;;;;;5050900;28;20032;-79
2023/08/15 08:44:21;;;;;;;29.27;8.93;;;;;;;;;;5049694;28;20473;-80
2023/08/15 08:46:47;;;;;;;18.92;9.43;;;;;;;;;;5049622;28;20029;-80
2023/08/15 08:49:14;;;;;;;16.20;9.60;;;;;;;;;;5051053;28;20112;-80
2023/08/15 08:51:40;;;;;;;14.80;8.70;;;;;;;;;;5033079;28;20029;-80
2023/08/15 08:54:06;;;;;;;12.95;6.65;;;;;;;;;;5051218;28;20113;-80
2023/08/15 08:56:33;;;;;;;12.93;5.72;;;;;;;;;;5050844;28;20472;-80
2023/08/15 08:59:05;;;;;;;12.77;6.30;;;;;;;;;;5051367;28;20362;-80
2023/08/15 09:01:32;;;;;;;14.27;7.30;;;;;;;;;;5049038;28;20025;-80
2023/08/15 09:03:58;;;;;;;12.05;6.63;;;;;;;;;;5049812;28;20543;-80
2023/08/15 09:06:27;;;;;;;12.90;6.22;;;;;;;;;;5051154;28;20477;-80
2023/08/15 09:08:54;;;;;;;9.13;6.03;;;;;;;;;;5049996;28;20112;-80
2023/08/15 09:11:21;;;;;;;10.80;6.93;;;;;;;;;;5051434;28;20021;-80
2023/08/15 09:13:47;;;;;;;13.43;6.20;;;;;;;;;;5035372;28;20017;-81
2023/08/15 09:16:13;;;;;;;8.85;5.95;;;;;;;;;;5049953;28;20478;-80
2023/08/15 09:18:39;;;;;;;16.02;7.13;;;;;;;;;;5032451;28;20064;-80
2023/08/15 09:21:06;;;;;;;13.98;5.70;;;;;;;;;;5052135;28;20049;-80
2023/08/15 09:23:32;;;;;;;15.10;5.60;;;;;;;;;;5050223;28;20025;-81
2023/08/15 09:25:58;;;;;;;9.13;3.28;;;;;;;;;;5051598;28;20074;-80
2023/08/15 09:28:24;;;;;;;8.07;2.80;;;;;;;;;;5050415;28;20049;-81
2023/08/15 09:30:54;;;;;;;11.88;3.45;;;;;;;;;;5050741;28;20028;-81
2023/08/15 09:33:20;;;;;;;8.70;2.90;;;;;;;;;;5044913;28;20033;-80
2023/08/15 09:35:46;;;;;;;11.38;2.55;;;;;;;;;;5053486;28;20496;-81
2023/08/15 09:38:14;;;;;;;12.55;2.83;;;;;;;;;;5045784;28;20028;-80
2023/08/15 09:40:43;;;;;;;10.48;2.60;;;;;;;;;;5053523;28;20036;-81
2023/08/15 09:43:14;;;;;;;6.28;2.63;;;;;;;;;;5044011;28;20548;-82
2023/08/15 09:51:48;;;;;;;6.28;2.40;;;;;;;;;;5051980;28;20435;-80
2023/08/15 09:54:16;;;;;;;7.88;2.60;;;;;;;;;;5046926;28;20040;-80
2023/08/15 09:56:43;;;;;;;5.40;2.20;;;;;;;;;;5057099;28;20380;-80
2023/08/15 09:59:09;;;;;;;4.43;2.55;;;;;;;;;;5045447;28;20472;-80
2023/08/15 10:01:37;;;;;;;8.52;2.65;;;;;;;;;;5042713;28;20029;-81
2023/08/15 10:04:10;;;;;;;6.57;2.22;;;;;;;;;;5046277;28;20039;-80
2023/08/15 10:06:36;;;;;;;6.15;2.55;;;;;;;;;;5056241;28;20032;-79
2023/08/15 10:09:05;;;;;;;7.72;2.88;;;;;;;;;;5056538;28;20067;-79
2023/08/15 10:11:34;;;;;;;5.97;2.60;;;;;;;;;;5039125;28;20017;-80
2023/08/15 10:14:01;;;;;;;10.35;2.95;;;;;;;;;;5051501;28;20119;-80
2023/08/15 10:16:27;;;;;;;5.40;2.17;;;;;;;;;;5047107;28;20488;-79
2023/08/15 10:18:56;;;;;;;6.90;2.35;;;;;;;;;;5056518;28;20420;-80
2023/08/15 10:21:28;;;;;;;7.13;2.55;;;;;;;;;;5055335;28;20108;-79
2023/08/15 10:23:55;;;;;;;6.10;2.63;;;;;;;;;;5053337;28;20476;-80
2023/08/15 10:26:21;;;;;;;6.88;2.67;;;;;;;;;;5053428;28;20385;-80
2023/08/15 10:28:47;;;;;;;5.32;2.03;;;;;;;;;;5043261;28;20029;-80
2023/08/15 10:31:13;;;;;;;5.55;2.28;;;;;;;;;;5047121;28;20033;-80
2023/08/15 10:33:41;;;;;;;6.82;3.05;;;;;;;;;;5050804;28;20282;-80
2023/08/15 10:36:08;;;;;;;4.45;2.78;;;;;;;;;;5049406;28;20040;-80
2023/08/15 10:38:39;;;;;;;11.85;2.28;;;;;;;;;;5059385;28;20108;-81
2023/08/15 10:41:07;;;;;;;8.85;2.28;;;;;;;;;;5047678;28;20102;-80
2023/08/15 10:43:33;;;;;;;5.78;2.47;;;;;;;;;;5054300;28;20080;-80
2023/08/15 10:46:04;;;;;;;5.85;2.25;;;;;;;;;;5056367;28;20040;-80
2023/08/15 10:48:36;;;;;;;10.85;2.83;;;;;;;;;;5061253;28;20064;-80
2023/08/15 10:51:03;;;;;;;9.05;2.40;;;;;;;;;;5048273;28;20025;-81
2023/08/15 10:53:29;;;;;;;5.70;2.20;;;;;;;;;;5053573;28;20538;-81
2023/08/15 10:55:55;;;;;;;2.45;2.15;;;;;;;;;;5052670;28;20535;-81
2023/08/15 10:58:22;;;;;;;11.55;2.10;;;;;;;;;;5050944;28;20036;-80
2023/08/15 11:00:49;;;;;;;7.85;2.33;;;;;;;;;;5033837;28;20435;-80
2023/08/15 11:03:15;;;;;;;6.43;2.17;;;;;;;;;;5053743;28;20071;-81
2023/08/15 11:05:41;;;;;;;6.53;2.20;;;;;;;;;;5054067;28;20041;-80
2023/08/15 11:08:18;;;;;;;8.43;1.92;;;;;;;;;;5053273;28;20447;-80
2023/08/15 11:10:48;;;;;;;8.38;2.72;;;;;;;;;;5054115;28;20362;-80
2023/08/15 11:13:17;;;;;;;7.47;2.40;;;;;;;;;;5044616;28;20067;-80
2023/08/15 11:15:44;;;;;;;6.53;2.33;;;;;;;;;;5047768;28;20480;-80
2023/08/15 11:18:11;;;;;;;8.38;2.90;;;;;;;;;;5050649;28;20468;-80
2023/08/15 11:20:37;;;;;;;4.88;2.35;;;;;;;;;;5040065;28;20036;-80
2023/08/15 11:23:03;;;;;;;8.20;2.40;;;;;;;;;;5059678;28;20036;-80
2023/08/15 11:25:29;;;;;;;7.40;2.33;;;;;;;;;;5051724;28;20424;-80
2023/08/15 11:27:55;;;;;;;4.90;2.05;;;;;;;;;;5031658;28;20084;-80
2023/08/15 11:30:21;;;;;;;12.07;2.83;;;;;;;;;;5055061;28;20063;-80
2023/08/15 11:32:47;;;;;;;5.97;2.53;;;;;;;;;;5053405;28;20411;-79
2023/08/15 11:35:13;;;;;;;9.35;2.45;;;;;;;;;;5048334;28;20044;-80
2023/08/15 11:37:41;;;;;;;8.75;2.50;;;;;;;;;;5054123;28;20031;-80
2023/08/15 11:40:08;;;;;;;8.70;2.70;;;;;;;;;;5053639;28;20033;-80
2023/08/15 11:42:34;;;;;;;9.68;2.33;;;;;;;;;;5036321;28;20973;-79
2023/08/15 11:45:06;;;;;;;8.32;2.40;;;;;;;;;;5032156;28;20045;-80
2023/08/15 11:47:32;;;;;;;7.97;2.67;;;;;;;;;;5062229;28;20519;-80
2023/08/15 11:49:58;;;;;;;8.88;2.92;;;;;;;;;;5059698;28;20037;-80
2023/08/15 11:52:24;;;;;;;6.15;2.58;;;;;;;;;;5054935;28;20472;-80
2023/08/15 11:54:50;;;;;;;4.05;2.33;;;;;;;;;;5036505;28;20365;-81
2023/08/15 11:57:33;;;;;;;8.05;2.33;;;;;;;;;;5054551;28;20068;-80
2023/08/15 12:00:01;;;;;;;4.18;2.50;;;;;;;;;;5049538;28;20032;-80
2023/08/15 12:02:27;;;;;;;8.60;2.47;;;;;;;;;;5057674;28;20029;-80
2023/08/15 12:04:53;;;;;;;7.43;2.90;;;;;;;;;;5057418;28;20087;-80
2023/08/15 12:07:20;;;;;;;7.95;2.65;;;;;;;;;;5061130;28;20496;-79
2023/08/15 12:09:47;;;;;;;7.97;3.28;;;;;;;;;;5063026;28;20024;-79
2023/08/15 12:12:24;;;;;;;10.00;2.60;;;;;;;;;;5055399;28;20095;-80
2023/08/15 12:14:50;;;;;;;7.50;2.63;;;;;;;;;;5054453;28;20383;-80
2023/08/15 12:17:17;;;;;;;10.10;3.20;;;;;;;;;;5055659;28;20033;-79
2023/08/15 12:19:43;;;;;;;13.35;3.03;;;;;;;;;;5053030;28;20043;-80
2023/08/15 12:22:11;;;;;;;6.68;2.88;;;;;;;;;;5064047;28;20099;-79
2023/08/15 12:24:37;;;;;;;6.60;3.40;;;;;;;;;;5058605;28;20041;-80
2023/08/15 12:27:03;;;;;;;4.82;2.55;;;;;;;;;;5038253;28;20021;-79
2023/08/15 12:29:32;;;;;;;14.40;3.45;;;;;;;;;;5055933;28;20180;-80
2023/08/15 12:31:59;;;;;;;7.57;2.60;;;;;;;;;;5061846;28;20029;-80
2023/08/15 12:34:25;;;;;;;5.47;3.00;;;;;;;;;;5055173;28;20035;-80
2023/08/15 12:36:51;;;;;;;6.63;2.75;;;;;;;;;;5057358;28;20020;-79
2023/08/15 12:39:18;;;;;;;6.88;3.00;;;;;;;;;;5057498;28;20036;-79
2023/08/15 12:41:44;;;;;;;4.80;2.80;;;;;;;;;;5053914;28;20020;-79
2023/08/15 12:44:10;;;;;;;5.70;2.85;;;;;;;;;;5049666;28;20134;-80
2023/08/15 12:46:36;;;;;;;6.70;3.38;;;;;;;;;;5051747;28;20037;-79
2023/08/15 12:49:02;;;;;;;9.20;2.72;;;;;;;;;;5061322;28;20029;-80
2023/08/15 12:51:28;;;;;;;9.27;3.55;;;;;;;;;;5060485;28;20038;-79
2023/08/15 12:53:54;;;;;;;5.82;3.30;;;;;;;;;;5046583;28;20043;-80
2023/08/15 12:56:20;;;;;;;6.80;3.58;;;;;;;;;;5055019;28;20029;-79
2023/08/15 12:58:46;;;;;;;13.18;3.67;;;;;;;;;;5044775;28;20124;-80
2023/08/15 13:01:12;;;;;;;7.93;3.55;;;;;;;;;;5043276;28;20029;-79
2023/08/15 13:03:38;;;;;;;11.23;3.55;;;;;;;;;;5062260;28;20107;-80
2023/08/15 13:06:04;;;;;;;5.03;3.38;;;;;;;;;;5055880;28;20064;-80
2023/08/15 13:08:30;;;;;;;10.85;3.83;;;;;;;;;;5065596;28;20498;-80
2023/08/15 13:10:56;;;;;;;11.63;3.80;;;;;;;;;;5061945;28;20028;-80
2023/08/15 13:13:23;;;;;;;5.75;3.63;;;;;;;;;;5059170;28;20029;-80
2023/08/15 13:15:50;;;;;;;12.02;3.47;;;;;;;;;;5063506;28;20032;-80
2023/08/15 13:18:16;;;;;;;12.38;4.20;;;;;;;;;;5059599;28;20063;-79
2023/08/15 13:20:42;;;;;;;13.85;4.75;;;;;;;;;;5062177;28;20029;-80
2023/08/15 13:23:08;;;;;;;6.78;4.28;;;;;;;;;;5057477;28;20032;-79
2023/08/15 13:25:35;;;;;;;11.63;5.07;;;;;;;;;;5062021;28;20052;-80
2023/08/15 13:28:01;;;;;;;15.13;4.60;;;;;;;;;;5060205;28;20063;-80
2023/08/15 13:30:30;;;;;;;13.10;4.15;;;;;;;;;;5055428;28;20082;-79
2023/08/15 13:33:02;;;;;;;12.60;4.20;;;;;;;;;;5059234;28;20067;-79
2023/08/15 13:35:28;;;;;;;8.10;4.00;;;;;;;;;;5056406;28;20040;-80
2023/08/15 13:37:54;;;;;;;14.40;4.30;;;;;;;;;;5053715;28;20053;-79
2023/08/15 13:40:20;;;;;;;7.00;4.18;;;;;;;;;;5055805;28;20040;-80
2023/08/15 13:42:46;;;;;;;9.68;4.32;;;;;;;;;;5064675;28;20094;-81
2023/08/15 13:45:12;;;;;;;9.52;4.75;;;;;;;;;;5057993;28;20033;-81
2023/08/15 13:47:38;;;;;;;7.68;4.13;;;;;;;;;;5058204;28;20029;-81
2023/08/15 13:50:04;;;;;;;14.52;4.28;;;;;;;;;;5058964;28;20460;-83
2023/08/15 13:52:36;;;;;;;8.68;4.28;;;;;;;;;;5065484;28;20036;-82
2023/08/15 13:55:04;;;;;;;12.63;3.85;;;;;;;;;;5062171;28;20464;-83
2023/08/15 13:57:32;;;;;;;9.27;3.78;;;;;;;;;;5058371;28;20045;-84
2023/08/15 13:59:58;;;;;;;10.88;3.05;;;;;;;;;;5054357;28;20029;-82
2023/08/15 14:02:24;;;;;;;5.22;3.20;;;;;;;;;;5055657;28;20353;-83
2023/08/15 14:04:50;;;;;;;8.48;4.30;;;;;;;;;;5049549;28;20091;-83
2023/08/15 14:07:16;;;;;;;10.18;3.83;;;;;;;;;;5060220;28;20099;-84
2023/08/15 14:09:44;;;;;;;6.03;2.80;;;;;;;;;;5039089;28;20031;-84
2023/08/15 14:12:10;;;;;;;9.38;2.90;;;;;;;;;;5059572;28;20079;-83
2023/08/15 14:14:36;;;;;;;4.03;2.65;;;;;;;;;;5052271;28;20025;-83
2023/08/15 14:17:03;;;;;;;9.15;3.28;;;;;;;;;;5051931;28;20051;-83
2023/08/15 14:19:29;;;;;;;6.22;2.78;;;;;;;;;;5034934;28;20028;-84
2023/08/15 14:21:55;;;;;;;6.82;2.72;;;;;;;;;;5058056;28;20032;-84
2023/08/15 14:24:21;;;;;;;7.22;2.97;;;;;;;;;;5055113;28;20041;-83
2023/08/15 14:26:47;;;;;;;4.50;1.98;;;;;;;;;;5032810;28;20342;-82
2023/08/15 14:29:13;;;;;;;5.80;2.33;;;;;;;;;;5033139;28;20028;-84
2023/08/15 14:31:39;;;;;;;5.10;2.40;;;;;;;;;;5059654;28;20032;-84
2023/08/15 14:34:05;;;;;;;7.45;2.95;;;;;;;;;;5034952;28;20024;-83
2023/08/15 14:36:31;;;;;;;8.40;2.60;;;;;;;;;;5052520;28;20902;-84
2023/08/15 14:39:03;;;;;;;3.10;2.17;;;;;;;;;;5048162;28;20388;-83
2023/08/15 14:41:32;;;;;;;9.05;2.33;;;;;;;;;;5059232;28;20029;-83
2023/08/15 14:43:58;;;;;;;6.05;2.70;;;;;;;;;;5039920;28;20024;-82